Azamara Quest — 9HOM8 — position and weather

sailwx.info

Track history (hours):
 
Tides and Currents Weather Stations Pressure Air Temp Water Temp Dewpoint Dewpoint Depression Visibility Wind Speed Wind Dir Waves Ship Positions

Azamara Quest

Last reported at 2018-May-27 04:20 UTC. Time now 2018-May-27 08:14 UTC.
Position N 43°41' E 007°28'.

Length 181 m; draft 5.9 m.

Type: Passenger vessel. MMSI: 256216000.

Date/timePositionNaut miles runAvg speedWind from/ knotsBaromVisibWave heightAir tempDewpointWater temp
2018-May-27 04:20N 43°41' E 007°28'510.1
2018-May-27 03:52N 43°36' E 007°30'410.5
2018-May-27 03:28N 43°32' E 007°32'510.6
2018-May-27 03:00N 43°28' E 007°34'510.8
2018-May-27 02:30N 43°22' E 007°36'611.3
2018-May-27 02:00N 43°17' E 007°38'710.6
2018-May-27 01:22N 43°10' E 007°40'410.8
2018-May-27 01:00N 43°07' E 007°42'155.5
2018-May-27 01:00N 43°06' E 007°42'5 8.7 090 / 221018.010.8 20.018.417.0
2018-May-27 00:27N 43°02' E 007°39'510.5
2018-May-26 23:59N 43°02' E 007°32'610.3
2018-May-26 23:24N 42°57' E 007°26'411.2
2018-May-26 23:01N 42°55' E 007°21'510.8
2018-May-26 22:30N 42°58' E 007°15'711.5
2018-May-26 21:56N 43°02' E 007°08'710.5
2018-May-26 21:14N 43°06' E 006°60'413.6
2018-May-26 20:54N 43°09' E 006°55'614.4
2018-May-26 20:30N 43°13' E 006°50'714.0
2018-May-26 20:00N 43°18' E 006°42'3 1.1
2018-May-26 16:54N 43°17' E 006°37'0 0.1
2018-May-26 16:30N 43°17' E 006°37'0 0.1
2018-May-26 16:00N 43°17' E 006°37'0 0.1
2018-May-26 15:30N 43°17' E 006°37'0 0.2
2018-May-26 15:00N 43°17' E 006°37'0 0.1
2018-May-26 14:02N 43°17' E 006°37'0 0.2
2018-May-26 13:37N 43°17' E 006°37'0 0.1
2018-May-26 13:24N 43°17' E 006°37'0 0.0
2018-May-26 13:00N 43°17' E 006°37'0 0.1
2018-May-26 12:25N 43°17' E 006°37'0 0.1
2018-May-26 11:59N 43°17' E 006°37'0 0.2
2018-May-26 11:28N 43°17' E 006°37'0 0.1
2018-May-26 10:28N 43°17' E 006°37'0 0.4
2018-May-26 10:00N 43°17' E 006°37'0 0.0
2018-May-26 07:31N 43°17' E 006°37'0 0.2
2018-May-26 07:30N 43°17' E 006°37'14 6.3
2018-May-26 05:14N 43°20' E 006°56'313.5
2018-May-26 05:01N 43°20' E 007°01'713.7
2018-May-26 04:31N 43°21' E 007°10'713.7
2018-May-26 04:00N 43°22' E 007°19'713.9
2018-May-26 03:30N 43°24' E 007°29'714.1
2018-May-26 02:59N 43°27' E 007°38'713.8
2018-May-26 02:30N 43°30' E 007°46'913.9
2018-May-26 01:53N 43°34' E 007°57'614.6
2018-May-26 01:30N 43°36' E 008°04'611.5
2018-May-26 01:00N 43°36' E 008°12'3612.3 1017.010.8 20.020.017.0
2018-May-26 00:59N 43°39' E 008°13'5 9.9
2018-May-26 00:31N 43°40' E 008°19'713.3
2018-May-26 00:01N 43°47' E 008°21'713.5
2018-May-25 23:31N 43°46' E 008°30'612.6
2018-May-25 23:00N 43°52' E 008°31'611.6
2018-May-25 22:31N 43°52' E 008°39'510.9
2018-May-25 22:00N 43°57' E 008°41'5 9.7
2018-May-25 21:30N 43°58' E 008°48'510.3
2018-May-25 21:00N 44°02' E 008°52'612.2
2018-May-25 20:30N 44°05' E 008°59'713.8
2018-May-25 20:00N 44°09' E 009°07'713.8
2018-May-25 19:30N 44°13' E 009°15'612.8
2018-May-25 19:00N 44°19' E 009°14'0 0.2
2018-May-25 16:54N 44°20' E 009°14'0 0.0
2018-May-25 13:15N 44°20' E 009°14'0 0.0
2018-May-25 12:54N 44°20' E 009°14'0 0.0
2018-May-25 11:57N 44°20' E 009°14'0 0.0
2018-May-25 11:18N 44°20' E 009°14'0 0.1
2018-May-25 11:00N 44°20' E 009°14'0 0.0
2018-May-25 09:18N 44°20' E 009°14'0 0.0
2018-May-25 08:57N 44°20' E 009°14'0 0.0
2018-May-25 08:24N 44°20' E 009°14'0 0.0
2018-May-25 07:36N 44°20' E 009°14'3 1.7
2018-May-25 06:08N 44°18' E 009°16'1 9.4
2018-May-25 06:00N 44°17' E 009°16'510.8
2018-May-25 05:30N 44°13' E 009°10'713.0
2018-May-25 05:00N 44°08' E 009°05'713.0
2018-May-25 04:30N 44°03' E 008°58'612.7
2018-May-25 04:00N 43°59' E 008°52'612.7
2018-May-25 03:30N 43°55' E 008°44'612.7
2018-May-25 03:00N 43°52' E 008°37'612.7
2018-May-25 02:30N 43°48' E 008°30'713.4
2018-May-25 01:59N 43°44' E 008°23'713.4
2018-May-25 01:29N 43°40' E 008°15'815.1
2018-May-25 01:00N 43°36' E 008°06'186.1 140 / 101017.010.8 20.018.417.0
2018-May-25 00:59N 43°37' E 008°07'612.9
2018-May-25 00:30N 43°34' E 007°59'2911.0
2018-May-24 21:51N 43°35' E 007°19'614.3
2018-May-24 21:26N 43°41' E 007°17'1 0.0
2018-May-23 04:35N 43°42' E 007°17'0 1.4
2018-May-23 04:27N 43°41' E 007°17'2 3.8
2018-May-23 04:00N 43°40' E 007°17'611.7
2018-May-23 03:30N 43°34' E 007°17'713.2
2018-May-23 03:00N 43°27' E 007°18'612.7
2018-May-23 02:30N 43°21' E 007°19'712.8
2018-May-23 02:00N 43°15' E 007°20'153519.5
2018-May-23 02:00N 43°00' E 007°18'36 5.1 010 / 111016.010.8 18.016.317.0
2018-May-22 18:59N 43°34' E 007°31'712.8
2018-May-22 18:27N 43°41' E 007°28'0 0.0
2018-May-22 04:55N 43°41' E 007°28'5413.7
2018-May-22 01:00N 42°48' E 007°42'25 8.3 090 / 101011.010.8 19.019.017.0
2018-May-21 22:00N 43°00' E 007°12'1811.8 060 / 221011.010.8 19.0 9.618.0
2018-May-21 20:29N 43°17' E 007°07'612.0
2018-May-21 20:00N 43°23' E 007°05'612.4
2018-May-21 19:30N 43°29' E 007°02'4 6.7
2018-May-21 18:58N 43°32' E 007°01'0 0.0
2018-May-21 18:28N 43°32' E 007°01'0 0.0
2018-May-21 17:58N 43°32' E 007°01'0 0.0
2018-May-21 17:28N 43°32' E 007°01'0 0.0
2018-May-21 16:58N 43°32' E 007°01'0 0.0
2018-May-21 16:28N 43°32' E 007°01'0 0.0
2018-May-21 15:58N 43°32' E 007°01'0 0.0
2018-May-21 15:28N 43°32' E 007°01'0 0.1
2018-May-21 14:58N 43°32' E 007°01'0 0.0
2018-May-21 14:28N 43°32' E 007°01'0 0.0
2018-May-21 13:58N 43°32' E 007°01'0 0.0
2018-May-21 13:28N 43°32' E 007°01'0 0.0
2018-May-21 12:58N 43°32' E 007°01'0 0.0
2018-May-21 12:22N 43°32' E 007°01'0 0.0
2018-May-21 11:58N 43°32' E 007°01'0 0.0
2018-May-21 11:28N 43°32' E 007°01'0 0.0
2018-May-21 10:52N 43°32' E 007°01'0 0.0
2018-May-21 10:28N 43°32' E 007°01'0 0.1
2018-May-21 09:58N 43°32' E 007°01'0 0.0
2018-May-21 09:25N 43°32' E 007°01'0 0.0
2018-May-21 08:58N 43°32' E 007°01'0 0.0
2018-May-21 08:25N 43°32' E 007°01'0 0.0
2018-May-21 07:58N 43°32' E 007°01'0 0.0
2018-May-21 07:25N 43°32' E 007°01'0 0.0
2018-May-21 06:55N 43°32' E 007°01'0 0.0
2018-May-21 06:28N 43°32' E 007°01'0 0.0
2018-May-21 05:55N 43°32' E 007°01'0 0.0
2018-May-21 05:28N 43°32' E 007°01'2 5.4
2018-May-21 05:00N 43°30' E 007°02'510.6
2018-May-21 04:31N 43°26' E 007°06'612.0
2018-May-21 04:00N 43°22' E 007°12'612.0
2018-May-21 03:30N 43°18' E 007°19'812.2
2018-May-21 02:53N 43°13' E 007°27'512.3
2018-May-21 02:29N 43°10' E 007°32'612.4
2018-May-21 01:59N 43°06' E 007°38'612.4
2018-May-21 01:30N 43°01' E 007°43'917.2
2018-May-21 01:00N 42°54' E 007°36'34 1.7 050 / 251011.010.8 20.018.417.0
2018-May-20 04:38N 43°15' E 006°59'211.5
2018-May-20 04:30N 43°15' E 007°01'612.0
2018-May-20 04:00N 43°13' E 007°09'712.2
2018-May-20 03:24N 43°11' E 007°19'512.2
2018-May-20 03:00N 43°09' E 007°25'712.4
2018-May-20 02:27N 43°07' E 007°34'2811.4
2018-May-20 00:00N 43°06' E 008°12'717.4 320 / 51015.010.8 19.017.417.0
2018-May-19 23:37N 43°08' E 008°21'312.9
2018-May-19 23:22N 43°09' E 008°25'513.4
2018-May-19 23:01N 43°11' E 008°31'714.8
2018-May-19 22:30N 43°14' E 008°40'714.7
2018-May-19 22:01N 43°16' E 008°50'714.6
2018-May-19 21:30N 43°19' E 008°59'714.8
2018-May-19 21:01N 43°21' E 009°09'714.8
2018-May-19 20:31N 43°24' E 009°18'714.3
2018-May-19 20:01N 43°26' E 009°27'714.9
2018-May-19 19:31N 43°29' E 009°37'714.7
2018-May-19 19:01N 43°31' E 009°47'714.2
2018-May-19 18:31N 43°32' E 009°56'714.5
2018-May-19 18:00N 43°30' E 010°06'714.2
2018-May-19 17:30N 43°32' E 010°16'2 3.8
2018-May-19 17:00N 43°33' E 010°18'0 0.0
2018-May-19 16:30N 43°33' E 010°18'0 0.0
2018-May-19 15:57N 43°33' E 010°18'0 0.0
2018-May-19 15:30N 43°33' E 010°18'0 0.0
2018-May-19 14:54N 43°33' E 010°18'0 0.0
2018-May-19 14:27N 43°33' E 010°18'0 0.0
2018-May-19 13:57N 43°33' E 010°18'0 0.0
2018-May-19 13:30N 43°33' E 010°18'0 0.0
2018-May-19 13:00N 43°33' E 010°18'0 0.0
2018-May-19 12:30N 43°33' E 010°18'0 0.0
2018-May-19 12:00N 43°33' E 010°18'0 0.0
2018-May-19 11:30N 43°33' E 010°18'0 0.0
2018-May-19 11:00N 43°33' E 010°18'0 0.0
2018-May-19 10:30N 43°33' E 010°18'0 0.0
2018-May-19 10:00N 43°33' E 010°18'0 0.0
2018-May-19 09:27N 43°33' E 010°18'0 0.0
2018-May-19 08:57N 43°33' E 010°18'0 0.0
2018-May-19 08:30N 43°33' E 010°18'0 0.0
2018-May-19 07:57N 43°33' E 010°18'0 0.0
2018-May-19 07:30N 43°33' E 010°18'0 0.0
2018-May-19 06:57N 43°33' E 010°18'0 0.0
2018-May-19 06:21N 43°33' E 010°18'0 0.0
2018-May-19 05:57N 43°33' E 010°18'0 0.0
2018-May-19 05:30N 43°33' E 010°18'0 0.0
2018-May-19 05:00N 43°33' E 010°18'0 0.0
2018-May-19 04:30N 43°33' E 010°18'0 0.0
2018-May-19 04:00N 43°33' E 010°18'0 0.0
2018-May-19 03:30N 43°33' E 010°18'0 0.0
2018-May-19 03:00N 43°33' E 010°18'0 0.0
2018-May-19 02:30N 43°33' E 010°18'0 0.0
2018-May-19 02:00N 43°33' E 010°18'0 0.0
2018-May-19 01:30N 43°33' E 010°18'0 0.0
2018-May-19 01:00N 43°33' E 010°18'0 0.0
2018-May-19 00:30N 43°33' E 010°18'0 0.0
2018-May-19 00:00N 43°33' E 010°18'0 0.0
2018-May-18 23:30N 43°33' E 010°18'0 0.0
2018-May-18 23:00N 43°33' E 010°18'0 0.0
2018-May-18 22:30N 43°33' E 010°18'0 0.0
2018-May-18 22:00N 43°33' E 010°18'0 0.0
2018-May-18 21:30N 43°33' E 010°18'0 0.0
2018-May-18 21:00N 43°33' E 010°18'0 0.0
2018-May-18 20:27N 43°33' E 010°18'0 0.0
2018-May-18 20:00N 43°33' E 010°18'0 0.0
2018-May-18 19:30N 43°33' E 010°18'0 0.0
2018-May-18 19:00N 43°33' E 010°18'0 0.0
2018-May-18 18:30N 43°33' E 010°18'0 0.0
2018-May-18 17:57N 43°33' E 010°18'0 0.0
2018-May-18 17:30N 43°33' E 010°18'0 0.0
2018-May-18 17:00N 43°33' E 010°18'0 0.0
2018-May-18 16:30N 43°33' E 010°18'0 0.0
2018-May-18 15:57N 43°33' E 010°18'0 0.0
2018-May-18 15:30N 43°33' E 010°18'0 0.0
2018-May-18 15:00N 43°33' E 010°18'0 0.0
2018-May-18 14:24N 43°33' E 010°18'0 0.0
2018-May-18 13:57N 43°33' E 010°18'0 0.0
2018-May-18 13:27N 43°33' E 010°18'0 0.0
2018-May-18 13:00N 43°33' E 010°18'0 0.0
2018-May-18 12:30N 43°33' E 010°18'0 0.0
2018-May-18 12:00N 43°33' E 010°18'0 0.0
2018-May-18 11:27N 43°33' E 010°18'0 0.0
2018-May-18 11:00N 43°33' E 010°18'0 0.0
2018-May-18 10:30N 43°33' E 010°18'0 0.0
2018-May-18 10:00N 43°33' E 010°18'0 0.0
2018-May-18 09:30N 43°33' E 010°18'0 0.0
2018-May-18 08:57N 43°33' E 010°18'0 0.0
2018-May-18 08:30N 43°33' E 010°18'0 0.0
2018-May-18 07:57N 43°33' E 010°18'0 0.0
2018-May-18 07:30N 43°33' E 010°18'0 0.0
2018-May-18 07:00N 43°33' E 010°18'0 0.0
2018-May-18 06:30N 43°33' E 010°18'0 0.0
2018-May-18 06:00N 43°33' E 010°18'0 0.1
2018-May-18 05:30N 43°33' E 010°18'1 2.9
2018-May-18 05:00N 43°32' E 010°16'5 9.1
2018-May-18 04:30N 43°28' E 010°13'815.3
2018-May-18 04:00N 43°21' E 010°11'714.2
2018-May-18 03:30N 43°14' E 010°10'713.2
2018-May-18 03:00N 43°07' E 010°08'713.2
2018-May-18 02:30N 43°01' E 010°06'713.5
2018-May-18 02:00N 42°54' E 010°04'1818.0
2018-May-18 01:00N 42°36' E 010°00'721.6 1016.010.8 18.016.317.0
2018-May-18 00:41N 42°38' E 010°09'314.7
2018-May-18 00:27N 42°36' E 010°12'714.8
2018-May-18 00:00N 42°32' E 010°19'  
Track history (hours):
 
Tides and Currents Weather Stations Pressure Air Temp Water Temp Dewpoint Dewpoint Depression Visibility Wind Speed Wind Dir Waves Ship Positions

Azamara Quest

Last reported at 2018-May-27 04:20 UTC. Time now 2018-May-27 08:14 UTC.
Position N 43°41' E 007°28'.

Length 181 m; draft 5.9 m.

Type: Passenger vessel. MMSI: 256216000.

Date/timePositionNaut miles runAvg speedWind from/ knotsBaromVisibWave heightAir tempDewpointWater temp
2018-May-27 04:20N 43°41' E 007°28'510.1
2018-May-27 03:52N 43°36' E 007°30'410.5
2018-May-27 03:28N 43°32' E 007°32'510.6
2018-May-27 03:00N 43°28' E 007°34'510.8
2018-May-27 02:30N 43°22' E 007°36'611.3
2018-May-27 02:00N 43°17' E 007°38'710.6
2018-May-27 01:22N 43°10' E 007°40'410.8
2018-May-27 01:00N 43°07' E 007°42'155.5
2018-May-27 01:00N 43°06' E 007°42'5 8.7 090 / 221018.010.8 20.018.417.0
2018-May-27 00:27N 43°02' E 007°39'510.5
2018-May-26 23:59N 43°02' E 007°32'610.3
2018-May-26 23:24N 42°57' E 007°26'411.2
2018-May-26 23:01N 42°55' E 007°21'510.8
2018-May-26 22:30N 42°58' E 007°15'711.5
2018-May-26 21:56N 43°02' E 007°08'710.5
2018-May-26 21:14N 43°06' E 006°60'413.6
2018-May-26 20:54N 43°09' E 006°55'614.4
2018-May-26 20:30N 43°13' E 006°50'714.0
2018-May-26 20:00N 43°18' E 006°42'3 1.1
2018-May-26 16:54N 43°17' E 006°37'0 0.1
2018-May-26 16:30N 43°17' E 006°37'0 0.1
2018-May-26 16:00N 43°17' E 006°37'0 0.1
2018-May-26 15:30N 43°17' E 006°37'0 0.2
2018-May-26 15:00N 43°17' E 006°37'0 0.1
2018-May-26 14:02N 43°17' E 006°37'0 0.2
2018-May-26 13:37N 43°17' E 006°37'0 0.1
2018-May-26 13:24N 43°17' E 006°37'0 0.0
2018-May-26 13:00N 43°17' E 006°37'0 0.1
2018-May-26 12:25N 43°17' E 006°37'0 0.1
2018-May-26 11:59N 43°17' E 006°37'0 0.2
2018-May-26 11:28N 43°17' E 006°37'0 0.1
2018-May-26 10:28N 43°17' E 006°37'0 0.4
2018-May-26 10:00N 43°17' E 006°37'0 0.0
2018-May-26 07:31N 43°17' E 006°37'0 0.2
2018-May-26 07:30N 43°17' E 006°37'14 6.3
2018-May-26 05:14N 43°20' E 006°56'313.5
2018-May-26 05:01N 43°20' E 007°01'713.7
2018-May-26 04:31N 43°21' E 007°10'713.7
2018-May-26 04:00N 43°22' E 007°19'713.9
2018-May-26 03:30N 43°24' E 007°29'714.1
2018-May-26 02:59N 43°27' E 007°38'713.8
2018-May-26 02:30N 43°30' E 007°46'913.9
2018-May-26 01:53N 43°34' E 007°57'614.6
2018-May-26 01:30N 43°36' E 008°04'611.5
2018-May-26 01:00N 43°36' E 008°12'3612.3 1017.010.8 20.020.017.0
2018-May-26 00:59N 43°39' E 008°13'5 9.9
2018-May-26 00:31N 43°40' E 008°19'713.3
2018-May-26 00:01N 43°47' E 008°21'713.5
2018-May-25 23:31N 43°46' E 008°30'612.6
2018-May-25 23:00N 43°52' E 008°31'611.6
2018-May-25 22:31N 43°52' E 008°39'510.9
2018-May-25 22:00N 43°57' E 008°41'5 9.7
2018-May-25 21:30N 43°58' E 008°48'510.3
2018-May-25 21:00N 44°02' E 008°52'612.2
2018-May-25 20:30N 44°05' E 008°59'713.8
2018-May-25 20:00N 44°09' E 009°07'713.8
2018-May-25 19:30N 44°13' E 009°15'612.8
2018-May-25 19:00N 44°19' E 009°14'0 0.2
2018-May-25 16:54N 44°20' E 009°14'0 0.0
2018-May-25 13:15N 44°20' E 009°14'0 0.0
2018-May-25 12:54N 44°20' E 009°14'0 0.0
2018-May-25 11:57N 44°20' E 009°14'0 0.0
2018-May-25 11:18N 44°20' E 009°14'0 0.1
2018-May-25 11:00N 44°20' E 009°14'0 0.0
2018-May-25 09:18N 44°20' E 009°14'0 0.0
2018-May-25 08:57N 44°20' E 009°14'0 0.0
2018-May-25 08:24N 44°20' E 009°14'0 0.0
2018-May-25 07:36N 44°20' E 009°14'3 1.7
2018-May-25 06:08N 44°18' E 009°16'1 9.4
2018-May-25 06:00N 44°17' E 009°16'510.8
2018-May-25 05:30N 44°13' E 009°10'713.0
2018-May-25 05:00N 44°08' E 009°05'713.0
2018-May-25 04:30N 44°03' E 008°58'612.7
2018-May-25 04:00N 43°59' E 008°52'612.7
2018-May-25 03:30N 43°55' E 008°44'612.7
2018-May-25 03:00N 43°52' E 008°37'612.7
2018-May-25 02:30N 43°48' E 008°30'713.4
2018-May-25 01:59N 43°44' E 008°23'713.4
2018-May-25 01:29N 43°40' E 008°15'815.1
2018-May-25 01:00N 43°36' E 008°06'186.1 140 / 101017.010.8 20.018.417.0
2018-May-25 00:59N 43°37' E 008°07'612.9
2018-May-25 00:30N 43°34' E 007°59'2911.0
2018-May-24 21:51N 43°35' E 007°19'614.3
2018-May-24 21:26N 43°41' E 007°17'1 0.0
2018-May-23 04:35N 43°42' E 007°17'0 1.4
2018-May-23 04:27N 43°41' E 007°17'2 3.8
2018-May-23 04:00N 43°40' E 007°17'611.7
2018-May-23 03:30N 43°34' E 007°17'713.2
2018-May-23 03:00N 43°27' E 007°18'612.7
2018-May-23 02:30N 43°21' E 007°19'712.8
2018-May-23 02:00N 43°15' E 007°20'153519.5
2018-May-23 02:00N 43°00' E 007°18'36 5.1 010 / 111016.010.8 18.016.317.0
2018-May-22 18:59N 43°34' E 007°31'712.8
2018-May-22 18:27N 43°41' E 007°28'0 0.0
2018-May-22 04:55N 43°41' E 007°28'5413.7
2018-May-22 01:00N 42°48' E 007°42'25 8.3 090 / 101011.010.8 19.019.017.0
2018-May-21 22:00N 43°00' E 007°12'1811.8 060 / 221011.010.8 19.0 9.618.0
2018-May-21 20:29N 43°17' E 007°07'612.0
2018-May-21 20:00N 43°23' E 007°05'612.4
2018-May-21 19:30N 43°29' E 007°02'4 6.7
2018-May-21 18:58N 43°32' E 007°01'0 0.0
2018-May-21 18:28N 43°32' E 007°01'0 0.0
2018-May-21 17:58N 43°32' E 007°01'0 0.0
2018-May-21 17:28N 43°32' E 007°01'0 0.0
2018-May-21 16:58N 43°32' E 007°01'0 0.0
2018-May-21 16:28N 43°32' E 007°01'0 0.0
2018-May-21 15:58N 43°32' E 007°01'0 0.0
2018-May-21 15:28N 43°32' E 007°01'0 0.1
2018-May-21 14:58N 43°32' E 007°01'0 0.0
2018-May-21 14:28N 43°32' E 007°01'0 0.0
2018-May-21 13:58N 43°32' E 007°01'0 0.0
2018-May-21 13:28N 43°32' E 007°01'0 0.0
2018-May-21 12:58N 43°32' E 007°01'0 0.0
2018-May-21 12:22N 43°32' E 007°01'0 0.0
2018-May-21 11:58N 43°32' E 007°01'0 0.0
2018-May-21 11:28N 43°32' E 007°01'0 0.0
2018-May-21 10:52N 43°32' E 007°01'0 0.0
2018-May-21 10:28N 43°32' E 007°01'0 0.1
2018-May-21 09:58N 43°32' E 007°01'0 0.0
2018-May-21 09:25N 43°32' E 007°01'0 0.0
2018-May-21 08:58N 43°32' E 007°01'0 0.0
2018-May-21 08:25N 43°32' E 007°01'0 0.0
2018-May-21 07:58N 43°32' E 007°01'0 0.0
2018-May-21 07:25N 43°32' E 007°01'0 0.0
2018-May-21 06:55N 43°32' E 007°01'0 0.0
2018-May-21 06:28N 43°32' E 007°01'0 0.0
2018-May-21 05:55N 43°32' E 007°01'0 0.0
2018-May-21 05:28N 43°32' E 007°01'2 5.4
2018-May-21 05:00N 43°30' E 007°02'510.6
2018-May-21 04:31N 43°26' E 007°06'612.0
2018-May-21 04:00N 43°22' E 007°12'612.0
2018-May-21 03:30N 43°18' E 007°19'812.2
2018-May-21 02:53N 43°13' E 007°27'512.3
2018-May-21 02:29N 43°10' E 007°32'612.4
2018-May-21 01:59N 43°06' E 007°38'612.4
2018-May-21 01:30N 43°01' E 007°43'917.2
2018-May-21 01:00N 42°54' E 007°36'34 1.7 050 / 251011.010.8 20.018.417.0
2018-May-20 04:38N 43°15' E 006°59'211.5
2018-May-20 04:30N 43°15' E 007°01'612.0
2018-May-20 04:00N 43°13' E 007°09'712.2
2018-May-20 03:24N 43°11' E 007°19'512.2
2018-May-20 03:00N 43°09' E 007°25'712.4
2018-May-20 02:27N 43°07' E 007°34'2811.4
2018-May-20 00:00N 43°06' E 008°12'717.4 320 / 51015.010.8 19.017.417.0
2018-May-19 23:37N 43°08' E 008°21'312.9
2018-May-19 23:22N 43°09' E 008°25'513.4
2018-May-19 23:01N 43°11' E 008°31'714.8
2018-May-19 22:30N 43°14' E 008°40'714.7
2018-May-19 22:01N 43°16' E 008°50'714.6
2018-May-19 21:30N 43°19' E 008°59'714.8
2018-May-19 21:01N 43°21' E 009°09'714.8
2018-May-19 20:31N 43°24' E 009°18'714.3
2018-May-19 20:01N 43°26' E 009°27'714.9
2018-May-19 19:31N 43°29' E 009°37'714.7
2018-May-19 19:01N 43°31' E 009°47'714.2
2018-May-19 18:31N 43°32' E 009°56'714.5
2018-May-19 18:00N 43°30' E 010°06'714.2
2018-May-19 17:30N 43°32' E 010°16'2 3.8
2018-May-19 17:00N 43°33' E 010°18'0 0.0
2018-May-19 16:30N 43°33' E 010°18'0 0.0
2018-May-19 15:57N 43°33' E 010°18'0 0.0
2018-May-19 15:30N 43°33' E 010°18'0 0.0
2018-May-19 14:54N 43°33' E 010°18'0 0.0
2018-May-19 14:27N 43°33' E 010°18'0 0.0
2018-May-19 13:57N 43°33' E 010°18'0 0.0
2018-May-19 13:30N 43°33' E 010°18'0 0.0
2018-May-19 13:00N 43°33' E 010°18'0 0.0
2018-May-19 12:30N 43°33' E 010°18'0 0.0
2018-May-19 12:00N 43°33' E 010°18'0 0.0
2018-May-19 11:30N 43°33' E 010°18'0 0.0
2018-May-19 11:00N 43°33' E 010°18'0 0.0
2018-May-19 10:30N 43°33' E 010°18'0 0.0
2018-May-19 10:00N 43°33' E 010°18'0 0.0
2018-May-19 09:27N 43°33' E 010°18'0 0.0
2018-May-19 08:57N 43°33' E 010°18'0 0.0
2018-May-19 08:30N 43°33' E 010°18'0 0.0
2018-May-19 07:57N 43°33' E 010°18'0 0.0
2018-May-19 07:30N 43°33' E 010°18'0 0.0
2018-May-19 06:57N 43°33' E 010°18'0 0.0
2018-May-19 06:21N 43°33' E 010°18'0 0.0
2018-May-19 05:57N 43°33' E 010°18'0 0.0
2018-May-19 05:30N 43°33' E 010°18'0 0.0
2018-May-19 05:00N 43°33' E 010°18'0 0.0
2018-May-19 04:30N 43°33' E 010°18'0 0.0
2018-May-19 04:00N 43°33' E 010°18'0 0.0
2018-May-19 03:30N 43°33' E 010°18'0 0.0
2018-May-19 03:00N 43°33' E 010°18'0 0.0
2018-May-19 02:30N 43°33' E 010°18'0 0.0
2018-May-19 02:00N 43°33' E 010°18'0 0.0
2018-May-19 01:30N 43°33' E 010°18'0 0.0
2018-May-19 01:00N 43°33' E 010°18'0 0.0
2018-May-19 00:30N 43°33' E 010°18'0 0.0
2018-May-19 00:00N 43°33' E 010°18'0 0.0
2018-May-18 23:30N 43°33' E 010°18'0 0.0
2018-May-18 23:00N 43°33' E 010°18'0 0.0
2018-May-18 22:30N 43°33' E 010°18'0 0.0
2018-May-18 22:00N 43°33' E 010°18'0 0.0
2018-May-18 21:30N 43°33' E 010°18'0 0.0
2018-May-18 21:00N 43°33' E 010°18'0 0.0
2018-May-18 20:27N 43°33' E 010°18'0 0.0
2018-May-18 20:00N 43°33' E 010°18'0 0.0
2018-May-18 19:30N 43°33' E 010°18'0 0.0
2018-May-18 19:00N 43°33' E 010°18'0 0.0
2018-May-18 18:30N 43°33' E 010°18'0 0.0
2018-May-18 17:57N 43°33' E 010°18'0 0.0
2018-May-18 17:30N 43°33' E 010°18'0 0.0
2018-May-18 17:00N 43°33' E 010°18'0 0.0
2018-May-18 16:30N 43°33' E 010°18'0 0.0
2018-May-18 15:57N 43°33' E 010°18'0 0.0
2018-May-18 15:30N 43°33' E 010°18'0 0.0
2018-May-18 15:00N 43°33' E 010°18'0 0.0
2018-May-18 14:24N 43°33' E 010°18'0 0.0
2018-May-18 13:57N 43°33' E 010°18'0 0.0
2018-May-18 13:27N 43°33' E 010°18'0 0.0
2018-May-18 13:00N 43°33' E 010°18'0 0.0
2018-May-18 12:30N 43°33' E 010°18'0 0.0
2018-May-18 12:00N 43°33' E 010°18'0 0.0
2018-May-18 11:27N 43°33' E 010°18'0 0.0
2018-May-18 11:00N 43°33' E 010°18'0 0.0
2018-May-18 10:30N 43°33' E 010°18'0 0.0
2018-May-18 10:00N 43°33' E 010°18'0 0.0
2018-May-18 09:30N 43°33' E 010°18'0 0.0
2018-May-18 08:57N 43°33' E 010°18'0 0.0
2018-May-18 08:30N 43°33' E 010°18'0 0.0
2018-May-18 07:57N 43°33' E 010°18'0 0.0
2018-May-18 07:30N 43°33' E 010°18'0 0.0
2018-May-18 07:00N 43°33' E 010°18'0 0.0
2018-May-18 06:30N 43°33' E 010°18'0 0.0
2018-May-18 06:00N 43°33' E 010°18'0 0.1
2018-May-18 05:30N 43°33' E 010°18'1 2.9
2018-May-18 05:00N 43°32' E 010°16'5 9.1
2018-May-18 04:30N 43°28' E 010°13'815.3
2018-May-18 04:00N 43°21' E 010°11'714.2
2018-May-18 03:30N 43°14' E 010°10'713.2
2018-May-18 03:00N 43°07' E 010°08'713.2
2018-May-18 02:30N 43°01' E 010°06'713.5
2018-May-18 02:00N 42°54' E 010°04'1818.0
2018-May-18 01:00N 42°36' E 010°00'721.6 1016.010.8 18.016.317.0
2018-May-18 00:41N 42°38' E 010°09'314.7
2018-May-18 00:27N 42°36' E 010°12'714.8
2018-May-18 00:00N 42°32' E 010°19'  

Dump ship's entire track history